createdAt,value
2023-01-28T00:01:22.675Z,98606.13
2023-01-28T00:03:55.915Z,98607.06
2023-01-28T00:06:24.509Z,98599.41
2023-01-28T00:08:56.926Z,98597.72
2023-01-28T00:11:25.429Z,98602.69
2023-01-28T00:13:54.629Z,98604.56
2023-01-28T00:16:24.118Z,98597.88
2023-01-28T00:18:52.826Z,98591.94
2023-01-28T00:21:21.410Z,98596.13
2023-01-28T00:23:54.576Z,98602.78
2023-01-28T00:26:25.493Z,98592.66
2023-01-28T00:28:54.069Z,98594.47
2023-01-28T00:31:24.952Z,98597.88
2023-01-28T00:33:57.097Z,98597.09
2023-01-28T00:36:29.431Z,98597.13
2023-01-28T00:38:59.144Z,98597.72
2023-01-28T00:41:30.495Z,98594.34
2023-01-28T00:44:00.921Z,98597.72
2023-01-28T00:46:30.217Z,98601.88
2023-01-28T00:48:58.592Z,98601.19
2023-01-28T00:51:27.278Z,98591.88
2023-01-28T00:53:55.988Z,98597.94
2023-01-28T00:56:24.924Z,98593.81
2023-01-28T00:58:55.184Z,98600.34
2023-01-28T01:01:26.179Z,98597.81
2023-01-28T01:04:03.443Z,98599.59
2023-01-28T01:06:33.140Z,98598.88
2023-01-28T01:09:01.482Z,98608.16
2023-01-28T01:11:30.011Z,98605.53
2023-01-28T01:14:01.929Z,98598.00
2023-01-28T01:16:36.482Z,98606.41
2023-01-28T01:19:05.429Z,98616.63
2023-01-28T01:21:34.148Z,98610.91
2023-01-28T01:24:16.625Z,98602.25
2023-01-28T01:26:45.231Z,98617.59
2023-01-28T01:29:15.333Z,98616.66
2023-01-28T01:31:44.137Z,98614.81
2023-01-28T01:34:12.763Z,98618.09
2023-01-28T01:36:44.307Z,98606.06
2023-01-28T01:39:16.562Z,98609.59
2023-01-28T01:41:46.122Z,98627.38
2023-01-28T01:44:54.624Z,98621.56
2023-01-28T01:47:27.453Z,98623.88
2023-01-28T01:50:00.180Z,98625.94
2023-01-28T01:52:33.959Z,98626.84
2023-01-28T01:55:08.270Z,98633.53
2023-01-28T01:57:41.164Z,98631.78
2023-01-28T02:00:12.710Z,98626.56
2023-01-28T02:02:44.972Z,98630.00
2023-01-28T02:05:16.474Z,98620.47
2023-01-28T02:07:46.836Z,98633.34
2023-01-28T02:10:16.215Z,98632.47
2023-01-28T02:12:47.691Z,98635.06
2023-01-28T02:15:20.998Z,98633.28
2023-01-28T02:17:51.639Z,98637.59
2023-01-28T02:20:23.892Z,98634.91
2023-01-28T02:23:26.975Z,98631.78
2023-01-28T02:26:22.921Z,98637.75
2023-01-28T02:28:56.813Z,98639.28
2023-01-28T02:31:35.060Z,98641.94
2023-01-28T02:34:12.868Z,98641.88
2023-01-28T02:36:47.984Z,98638.53
2023-01-28T02:39:22.025Z,98636.06
2023-01-28T02:41:56.361Z,98632.00
2023-01-28T02:44:27.018Z,98636.88
2023-01-28T02:47:13.217Z,98630.16
2023-01-28T02:49:44.875Z,98631.13
2023-01-28T02:52:51.442Z,98635.28
2023-01-28T02:55:30.749Z,98636.06
2023-01-28T02:58:08.336Z,98637.06
2023-01-28T03:00:50.948Z,98642.25
2023-01-28T03:03:25.267Z,98651.41
2023-01-28T03:06:09.011Z,98648.25
2023-01-28T03:09:01.364Z,98644.94
2023-01-28T03:11:49.905Z,98644.78
2023-01-28T03:14:37.993Z,98642.94
2023-01-28T03:17:31.212Z,98650.53
2023-01-28T03:20:17.056Z,98656.28
2023-01-28T03:23:07.880Z,98652.09
2023-01-28T03:25:54.754Z,98638.50
2023-01-28T03:28:42.671Z,98653.09
2023-01-28T03:31:31.853Z,98653.94
2023-01-28T03:34:20.904Z,98652.22
2023-01-28T03:36:50.710Z,98653.84
2023-01-28T03:39:23.464Z,98653.09
2023-01-28T03:42:02.024Z,98664.88
2023-01-28T03:44:48.290Z,98661.34
2023-01-28T03:47:17.089Z,98670.56
2023-01-28T03:49:49.548Z,98672.38
2023-01-28T03:52:21.658Z,98671.72
2023-01-28T03:54:50.495Z,98672.63
2023-01-28T03:57:20.426Z,98682.59
2023-01-28T03:59:50.042Z,98681.53
2023-01-28T04:02:20.772Z,98681.53
2023-01-28T04:04:51.501Z,98684.84
2023-01-28T04:07:19.870Z,98675.47
2023-01-28T04:09:48.386Z,98684.03
2023-01-28T04:12:16.884Z,98688.28
2023-01-28T04:14:47.872Z,98679.97
2023-01-28T04:17:16.199Z,98685.13
2023-01-28T04:19:44.312Z,98695.16
2023-01-28T04:22:14.142Z,98695.94
2023-01-28T04:24:42.660Z,98705.16
2023-01-28T04:27:10.890Z,98700.06
2023-01-28T04:29:39.328Z,98699.25
2023-01-28T04:32:09.393Z,98705.59
2023-01-28T04:34:39.576Z,98709.19
2023-01-28T04:37:07.939Z,98713.22
2023-01-28T04:39:37.926Z,98714.84
2023-01-28T04:42:06.463Z,98720.75
2023-01-28T04:44:35.539Z,98708.88
2023-01-28T04:47:03.971Z,98716.69
2023-01-28T04:49:33.166Z,98705.75
2023-01-28T04:52:01.577Z,98715.88
2023-01-28T04:54:29.935Z,98712.38
2023-01-28T04:57:00.050Z,98719.91
2023-01-28T04:59:28.532Z,98719.16
2023-01-28T05:01:57.048Z,98715.88
2023-01-28T05:04:25.774Z,98718.22
2023-01-28T05:06:54.307Z,98713.41
2023-01-28T05:09:22.908Z,98719.16
2023-01-28T05:11:51.302Z,98717.47
2023-01-28T05:14:21.314Z,98714.25
2023-01-28T05:16:51.361Z,98712.72
2023-01-28T05:19:19.858Z,98710.97
2023-01-28T05:21:48.335Z,98712.41
2023-01-28T05:24:17.280Z,98714.25
2023-01-28T05:26:45.707Z,98714.25
2023-01-28T05:29:14.559Z,98717.56
2023-01-28T05:31:44.223Z,98713.41
2023-01-28T05:34:12.556Z,98715.13
2023-01-28T05:36:41.569Z,98727.84
2023-01-28T05:39:10.242Z,98725.38
2023-01-28T05:41:38.945Z,98717.56
2023-01-28T05:44:07.507Z,98729.50
2023-01-28T05:46:36.452Z,98716.84
2023-01-28T05:49:08.903Z,98715.97
2023-01-28T05:51:37.180Z,98720.56
2023-01-28T05:54:06.466Z,98725.47
2023-01-28T05:56:36.706Z,98727.84
2023-01-28T05:59:06.125Z,98728.63
2023-01-28T06:01:35.106Z,98735.69
2023-01-28T06:04:04.195Z,98734.91
2023-01-28T06:06:34.129Z,98712.06
2023-01-28T06:09:02.725Z,98732.03
2023-01-28T06:11:32.285Z,98737.97
2023-01-28T06:14:01.232Z,98734.47
2023-01-28T06:16:29.950Z,98741.25
2023-01-28T06:18:58.165Z,98739.66
2023-01-28T06:21:28.993Z,98736.19
2023-01-28T06:23:59.624Z,98740.38
2023-01-28T06:26:28.177Z,98736.25
2023-01-28T06:28:56.644Z,98753.16
2023-01-28T06:31:25.202Z,98749.00
2023-01-28T06:33:53.909Z,98752.41
2023-01-28T06:36:22.686Z,98753.22
2023-01-28T06:38:52.870Z,98757.41
2023-01-28T06:41:23.066Z,98772.69
2023-01-28T06:43:51.858Z,98771.84
2023-01-28T06:46:20.550Z,98773.63
2023-01-28T06:48:48.913Z,98772.97
2023-01-28T06:51:17.371Z,98777.91
2023-01-28T06:53:46.201Z,98769.41
2023-01-28T06:56:14.766Z,98778.84
2023-01-28T06:58:44.373Z,98772.94
2023-01-28T07:01:12.599Z,98779.59
2023-01-28T07:03:41.133Z,98773.78
2023-01-28T07:06:09.516Z,98786.44
2023-01-28T07:08:38.440Z,98788.97
2023-01-28T07:11:07.469Z,98788.03
2023-01-28T07:13:38.513Z,98783.66
2023-01-28T07:16:09.606Z,98785.28
2023-01-28T07:18:38.009Z,98796.44
2023-01-28T07:21:06.713Z,98811.78
2023-01-28T07:23:34.958Z,98797.22
2023-01-28T07:26:04.238Z,98800.72
2023-01-28T07:28:32.803Z,98798.19
2023-01-28T07:31:01.443Z,98799.78
2023-01-28T07:33:32.248Z,98804.84
2023-01-28T07:36:00.467Z,98802.41
2023-01-28T07:38:29.318Z,98806.72
2023-01-28T07:40:57.541Z,98816.75
2023-01-28T07:43:26.009Z,98812.50
2023-01-28T07:45:54.647Z,98816.66
2023-01-28T07:48:23.352Z,98818.56
2023-01-28T07:50:53.004Z,98821.13
2023-01-28T07:53:21.462Z,98816.16
2023-01-28T07:55:49.698Z,98822.06
2023-01-28T07:58:18.171Z,98821.13
2023-01-28T08:00:46.991Z,98817.00
2023-01-28T08:03:16.590Z,98822.75
2023-01-28T08:05:47.858Z,98819.25
2023-01-28T08:08:18.557Z,98824.56
2023-01-28T08:10:47.689Z,98819.50
2023-01-28T08:13:18.232Z,98812.06
2023-01-28T08:15:47.158Z,98824.84
2023-01-28T08:18:17.646Z,98827.94
2023-01-28T08:20:47.567Z,98822.03
2023-01-28T08:23:23.229Z,98827.97
2023-01-28T08:25:52.691Z,98827.94
2023-01-28T08:28:22.269Z,98838.75
2023-01-28T08:30:50.862Z,98839.59
2023-01-28T08:33:20.424Z,98832.94
2023-01-28T08:35:48.912Z,98820.88
2023-01-28T08:38:18.318Z,98828.63
2023-01-28T08:40:48.376Z,98832.94
2023-01-28T08:43:17.315Z,98831.31
2023-01-28T08:45:45.939Z,98837.22
2023-01-28T08:48:17.770Z,98838.81
2023-01-28T08:50:46.624Z,98839.53
2023-01-28T08:53:17.795Z,98835.22
2023-01-28T08:55:48.783Z,98844.66
2023-01-28T08:58:18.965Z,98843.38
2023-01-28T09:00:47.935Z,98850.97
2023-01-28T09:03:16.691Z,98839.41
2023-01-28T09:05:46.045Z,98841.59
2023-01-28T09:08:16.768Z,98852.44
2023-01-28T09:10:45.518Z,98848.88
2023-01-28T09:13:17.418Z,98847.38
2023-01-28T09:15:46.045Z,98845.94
2023-01-28T09:18:14.839Z,98847.38
2023-01-28T09:20:43.374Z,98846.81
2023-01-28T09:23:12.289Z,98848.16
2023-01-28T09:25:40.954Z,98845.81
2023-01-28T09:28:10.083Z,98847.81
2023-01-28T09:30:40.053Z,98847.44
2023-01-28T09:33:09.241Z,98855.88
2023-01-28T09:35:38.318Z,98865.19
2023-01-28T09:38:07.426Z,98862.66
2023-01-28T09:40:38.623Z,98867.16
2023-01-28T09:43:33.889Z,98880.19
2023-01-28T09:46:06.851Z,98884.84
2023-01-28T09:48:40.352Z,98882.00
2023-01-28T09:51:12.442Z,98887.28
2023-01-28T09:53:44.946Z,98882.22
2023-01-28T09:56:17.212Z,98881.41
2023-01-28T09:58:45.489Z,98876.41
2023-01-28T10:01:34.520Z,98884.75
2023-01-28T10:04:11.069Z,98883.22
2023-01-28T10:06:49.221Z,98875.88
2023-01-28T10:09:29.248Z,98875.78
2023-01-28T10:12:13.741Z,98862.94
2023-01-28T10:14:56.719Z,98868.41
2023-01-28T10:17:33.231Z,98870.09
2023-01-28T10:20:07.348Z,98868.50
2023-01-28T10:22:40.975Z,98870.66
2023-01-28T10:25:19.480Z,98878.28
2023-01-28T10:27:49.303Z,98882.16
2023-01-28T10:30:21.062Z,98873.50
2023-01-28T10:32:55.092Z,98877.78
2023-01-28T10:35:24.306Z,98860.84
2023-01-28T10:37:55.120Z,98872.72
2023-01-28T10:40:24.050Z,98858.53
2023-01-28T10:42:52.544Z,98862.06
2023-01-28T10:45:24.919Z,98859.09
2023-01-28T10:48:00.994Z,98852.38
2023-01-28T10:50:32.502Z,98860.22
2023-01-28T10:53:03.132Z,98855.84
2023-01-28T10:55:45.989Z,98857.53
2023-01-28T10:58:21.440Z,98858.28
2023-01-28T11:00:54.923Z,98862.97
2023-01-28T11:03:27.479Z,98854.59
2023-01-28T11:05:57.105Z,98867.28
2023-01-28T11:08:26.786Z,98875.81
2023-01-28T11:10:56.834Z,98871.66
2023-01-28T11:13:27.825Z,98864.06
2023-01-28T11:16:04.961Z,98861.72
2023-01-28T11:18:37.750Z,98864.28
2023-01-28T11:21:09.227Z,98860.00
2023-01-28T11:23:48.512Z,98865.81
2023-01-28T11:26:20.439Z,98867.34
2023-01-28T11:28:49.216Z,98872.03
2023-01-28T11:31:23.624Z,98866.75
2023-01-28T11:34:00.962Z,98868.72
2023-01-28T11:36:31.293Z,98872.22
2023-01-28T11:39:01.663Z,98871.88
2023-01-28T11:41:31.891Z,98869.88
2023-01-28T11:44:02.717Z,98880.56
2023-01-28T11:47:03.094Z,98871.94
2023-01-28T11:49:44.721Z,98871.38
2023-01-28T11:52:24.692Z,98877.44
2023-01-28T11:55:07.870Z,98871.56
2023-01-28T11:57:43.744Z,98850.31
2023-01-28T12:00:35.376Z,98863.84
2023-01-28T12:03:20.200Z,98869.81
2023-01-28T12:05:53.423Z,98866.44
2023-01-28T12:08:27.411Z,98861.22
2023-01-28T12:11:10.619Z,98862.22
2023-01-28T12:13:55.767Z,98853.13
2023-01-28T12:16:39.138Z,98846.59
2023-01-28T12:19:31.423Z,98840.53
2023-01-28T12:22:24.420Z,98851.38
2023-01-28T12:25:12.895Z,98849.97
2023-01-28T12:27:52.655Z,98858.81
2023-01-28T12:30:39.145Z,98868.88
2023-01-28T12:33:29.276Z,98868.16
2023-01-28T12:36:07.543Z,98871.28
2023-01-28T12:38:50.480Z,98859.97
2023-01-28T12:41:23.850Z,98866.66
2023-01-28T12:44:00.972Z,98870.59
2023-01-28T12:46:41.702Z,98867.09
2023-01-28T12:49:16.319Z,98861.28
2023-01-28T12:51:58.194Z,98863.59
2023-01-28T12:54:32.566Z,98863.59
2023-01-28T12:57:02.229Z,98853.59
2023-01-28T12:59:35.366Z,98838.09
2023-01-28T13:02:19.622Z,98847.38
2023-01-28T13:04:52.393Z,98840.63
2023-01-28T13:07:27.501Z,98852.84
2023-01-28T13:10:05.017Z,98849.81
2023-01-28T13:12:34.505Z,98854.69
2023-01-28T13:15:04.390Z,98842.94
2023-01-28T13:17:34.096Z,98855.59
2023-01-28T13:20:02.562Z,98853.31
2023-01-28T13:22:34.429Z,98854.06
2023-01-28T13:25:23.888Z,98860.16
2023-01-28T13:28:00.509Z,98853.53
2023-01-28T13:30:31.226Z,98854.34
2023-01-28T13:33:02.698Z,98856.97
2023-01-28T13:35:35.170Z,98865.03
2023-01-28T13:38:19.066Z,98860.16
2023-01-28T13:40:58.399Z,98868.66
2023-01-28T13:43:37.485Z,98862.06
2023-01-28T13:46:08.860Z,98861.22
2023-01-28T13:48:43.845Z,98867.06
2023-01-28T13:51:20.552Z,98851.16
2023-01-28T13:53:57.521Z,98871.09
2023-01-28T13:56:32.893Z,98876.28
2023-01-28T13:59:21.355Z,98871.81
2023-01-28T14:02:19.657Z,98872.03
2023-01-28T14:05:28.787Z,98883.41
2023-01-28T14:08:31.957Z,98887.09
2023-01-28T14:11:16.356Z,98892.53
2023-01-28T14:14:28.810Z,98878.72
2023-01-28T14:17:02.292Z,98886.19
2023-01-28T14:19:38.899Z,98886.03
2023-01-28T14:22:10.971Z,98891.78
2023-01-28T14:24:41.557Z,98896.13
2023-01-28T14:27:19.210Z,98901.81
2023-01-28T14:30:03.789Z,98904.56
2023-01-28T14:32:34.963Z,98906.72
2023-01-28T14:35:11.000Z,98909.81
2023-01-28T14:37:42.834Z,98920.91
2023-01-28T14:40:16.940Z,98910.84
2023-01-28T14:42:48.311Z,98918.03
2023-01-28T14:45:34.519Z,98922.00
2023-01-28T14:48:18.477Z,98924.44
2023-01-28T14:51:03.003Z,98922.91
2023-01-28T14:54:03.597Z,98935.25
2023-01-28T14:56:44.741Z,98922.56
2023-01-28T14:59:20.927Z,98916.41
2023-01-28T15:01:56.035Z,98914.78
2023-01-28T15:04:30.440Z,98918.78
2023-01-28T15:07:03.001Z,98930.75
2023-01-28T15:09:32.015Z,98933.38
2023-01-28T15:12:02.109Z,98935.53
2023-01-28T15:14:35.703Z,98942.34
2023-01-28T15:17:05.848Z,98937.94
2023-01-28T15:19:36.252Z,98940.47
2023-01-28T15:22:08.713Z,98949.72
2023-01-28T15:24:37.854Z,98947.41
2023-01-28T15:27:06.547Z,98947.00
2023-01-28T15:29:36.891Z,98954.50
2023-01-28T15:32:07.860Z,98957.91
2023-01-28T15:34:38.348Z,98974.69
2023-01-28T15:37:06.882Z,98965.47
2023-01-28T15:39:35.599Z,98956.00
2023-01-28T15:42:07.044Z,98965.09
2023-01-28T15:44:38.962Z,98961.00
2023-01-28T15:47:17.819Z,98974.31
2023-01-28T15:49:54.558Z,98963.91
2023-01-28T15:52:30.642Z,98966.41
2023-01-28T15:54:59.543Z,98976.25
2023-01-28T15:57:31.951Z,98979.06
2023-01-28T16:00:14.528Z,98987.50
2023-01-28T16:02:50.110Z,98990.06
2023-01-28T16:05:28.222Z,98989.63
2023-01-28T16:07:59.018Z,98994.28
2023-01-28T16:10:29.855Z,98998.59
2023-01-28T16:13:06.302Z,98998.50
2023-01-28T16:15:36.926Z,99002.88
2023-01-28T16:18:08.067Z,99012.22
2023-01-28T16:20:36.938Z,99006.22
2023-01-28T16:23:22.925Z,99006.81
2023-01-28T16:26:01.618Z,98999.59
2023-01-28T16:28:33.586Z,99003.38
2023-01-28T16:31:02.197Z,99008.66
2023-01-28T16:33:33.449Z,99008.44
2023-01-28T16:36:08.403Z,99006.63
2023-01-28T16:38:49.366Z,98993.69
2023-01-28T16:41:51.813Z,99013.00
2023-01-28T16:44:21.556Z,99010.75
2023-01-28T16:46:50.497Z,99006.88
2023-01-28T16:49:20.774Z,99005.47
2023-01-28T16:51:49.525Z,99004.41
2023-01-28T16:54:18.588Z,99000.25
2023-01-28T16:56:47.401Z,99010.63
2023-01-28T16:59:18.175Z,98991.03
2023-01-28T17:01:47.404Z,99001.41
2023-01-28T17:04:16.754Z,98994.41
2023-01-28T17:06:47.369Z,98995.81
2023-01-28T17:09:16.799Z,99002.03
2023-01-28T17:11:45.441Z,99004.22
2023-01-28T17:14:14.925Z,99014.44
2023-01-28T17:16:43.885Z,99000.97
2023-01-28T17:19:13.042Z,99013.19
2023-01-28T17:21:42.263Z,99018.34
2023-01-28T17:24:12.661Z,99009.84
2023-01-28T17:26:42.478Z,99013.84
2023-01-28T17:29:11.723Z,99006.63
2023-01-28T17:31:40.408Z,99001.59
2023-01-28T17:34:27.150Z,99013.09
2023-01-28T17:36:55.929Z,99007.69
2023-01-28T17:39:26.250Z,99006.00
2023-01-28T17:41:55.245Z,99016.38
2023-01-28T17:44:24.653Z,99036.75
2023-01-28T17:46:57.250Z,99042.69
2023-01-28T17:49:27.206Z,99039.44
2023-01-28T17:52:11.715Z,99039.53
2023-01-28T17:54:49.551Z,99038.56
2023-01-28T17:57:20.637Z,99041.06
2023-01-28T17:59:49.730Z,99030.22
2023-01-28T18:02:18.328Z,99034.97
2023-01-28T18:04:47.078Z,99032.13
2023-01-28T18:07:15.677Z,99021.81
2023-01-28T18:09:47.254Z,99029.19
2023-01-28T18:12:17.821Z,99026.66
2023-01-28T18:14:46.305Z,99022.56
2023-01-28T18:17:14.550Z,99024.84
2023-01-28T18:19:43.279Z,99038.41
2023-01-28T18:22:12.006Z,99030.63
2023-01-28T18:24:41.047Z,99038.41
2023-01-28T18:27:14.544Z,99035.16
2023-01-28T18:29:43.440Z,99050.34
2023-01-28T18:32:12.162Z,99052.66
2023-01-28T18:34:40.820Z,99059.09
2023-01-28T18:37:10.230Z,99044.75
2023-01-28T18:39:39.906Z,99042.13
2023-01-28T18:42:09.060Z,99036.59
2023-01-28T18:44:39.492Z,99053.00
2023-01-28T18:47:08.113Z,99062.25
2023-01-28T18:49:36.737Z,99055.25
2023-01-28T18:52:05.153Z,99067.34
2023-01-28T18:54:34.019Z,99072.81
2023-01-28T18:57:02.771Z,99082.06
2023-01-28T18:59:32.024Z,99072.81
2023-01-28T19:02:04.437Z,99070.97
2023-01-28T19:04:33.114Z,99078.44
2023-01-28T19:07:01.741Z,99084.84
2023-01-28T19:09:30.264Z,99090.00
2023-01-28T19:11:59.145Z,99089.72
2023-01-28T19:14:27.654Z,99092.41
2023-01-28T19:16:55.882Z,99089.72
2023-01-28T19:19:26.277Z,99091.28
2023-01-28T19:21:55.371Z,99106.53
2023-01-28T19:24:23.939Z,99103.38
2023-01-28T19:26:52.349Z,99097.94
2023-01-28T19:29:20.910Z,99101.72
2023-01-28T19:31:50.625Z,99088.03
2023-01-28T19:34:19.419Z,99110.16
2023-01-28T19:36:49.240Z,99104.63
2023-01-28T19:39:17.895Z,99098.66
2023-01-28T19:41:46.631Z,99102.59
2023-01-28T19:44:15.115Z,99090.28
2023-01-28T19:46:43.626Z,99100.97
2023-01-28T19:49:13.224Z,99109.44
2023-01-28T19:51:41.535Z,99104.63
2023-01-28T19:54:11.565Z,99101.81
2023-01-28T19:56:39.911Z,99081.03
2023-01-28T19:59:08.578Z,99104.19
2023-01-28T20:01:37.207Z,99111.88
2023-01-28T20:04:06.724Z,99105.94
2023-01-28T20:06:36.267Z,99096.50
2023-01-28T20:09:07.948Z,99094.75
2023-01-28T20:11:37.974Z,99105.16
2023-01-28T20:14:06.623Z,99123.13
2023-01-28T20:16:36.885Z,99124.75
2023-01-28T20:19:07.103Z,99131.34
2023-01-28T20:21:37.254Z,99155.78
2023-01-28T20:24:06.728Z,99157.63
2023-01-28T20:26:38.973Z,99167.13
2023-01-28T20:29:09.769Z,99174.38
2023-01-28T20:31:39.480Z,99183.38
2023-01-28T20:34:08.169Z,99178.66
2023-01-28T20:36:37.352Z,99169.50
2023-01-28T20:39:05.990Z,99179.16
2023-01-28T20:41:34.366Z,99179.84
2023-01-28T20:44:04.322Z,99179.41
2023-01-28T20:46:36.021Z,99178.84
2023-01-28T20:49:06.796Z,99187.41
2023-01-28T20:51:36.780Z,99174.50
2023-01-28T20:54:05.811Z,99181.78
2023-01-28T20:56:34.578Z,99177.44
2023-01-28T20:59:06.722Z,99174.78
2023-01-28T21:01:37.583Z,99149.81
2023-01-28T21:04:10.669Z,99161.00
2023-01-28T21:06:40.054Z,99168.41
2023-01-28T21:09:08.650Z,99164.44
2023-01-28T21:11:37.566Z,99166.31
2023-01-28T21:14:07.798Z,99159.00
2023-01-28T21:16:41.395Z,99163.91
2023-01-28T21:19:10.006Z,99160.44
2023-01-28T21:21:38.297Z,99167.16
2023-01-28T21:24:08.229Z,99167.38
2023-01-28T21:26:36.871Z,99159.81
2023-01-28T21:29:06.990Z,99158.38
2023-01-28T21:31:36.158Z,99161.22
2023-01-28T21:34:05.056Z,99163.09
2023-01-28T21:36:34.795Z,99160.16
2023-01-28T21:39:05.149Z,99173.63
2023-01-28T21:41:35.453Z,99164.34
2023-01-28T21:44:05.183Z,99167.84
2023-01-28T21:46:35.344Z,99172.47
2023-01-28T21:49:06.767Z,99173.59
2023-01-28T21:51:39.765Z,99177.84
2023-01-28T21:54:11.508Z,99179.69
2023-01-28T21:56:40.183Z,99183.16
2023-01-28T21:59:25.970Z,99188.22
2023-01-28T22:01:56.076Z,99183.81
2023-01-28T22:04:25.161Z,99179.56
2023-01-28T22:06:56.091Z,99183.16
2023-01-28T22:09:24.928Z,99184.81
2023-01-28T22:11:53.885Z,99186.50
2023-01-28T22:14:22.684Z,99183.63
2023-01-28T22:16:52.249Z,99172.25
2023-01-28T22:19:22.451Z,99168.56
2023-01-28T22:21:51.000Z,99171.22
2023-01-28T22:24:22.708Z,99173.75
2023-01-28T22:26:51.458Z,99168.31
2023-01-28T22:29:21.412Z,99177.53
2023-01-28T22:31:51.260Z,99169.78
2023-01-28T22:34:22.269Z,99166.19
2023-01-28T22:36:52.063Z,99171.19
2023-01-28T22:39:20.714Z,99182.41
2023-01-28T22:41:49.562Z,99156.53
2023-01-28T22:44:20.042Z,99178.00
2023-01-28T22:46:49.434Z,99181.28
2023-01-28T22:49:18.016Z,99192.22
2023-01-28T22:51:48.119Z,99176.16
2023-01-28T22:54:16.602Z,99176.88
2023-01-28T22:56:45.295Z,99168.69
2023-01-28T22:59:13.956Z,99174.19
2023-01-28T23:01:42.687Z,99172.06
2023-01-28T23:04:11.092Z,99175.88
2023-01-28T23:06:39.831Z,99183.44
2023-01-28T23:09:10.870Z,99177.25
2023-01-28T23:11:39.380Z,99169.06
2023-01-28T23:14:25.223Z,99155.06
2023-01-28T23:17:10.987Z,99158.66
2023-01-28T23:19:57.010Z,99163.28
2023-01-28T23:22:46.276Z,99170.06
2023-01-28T23:25:16.733Z,99168.28
2023-01-28T23:27:45.007Z,99160.09
2023-01-28T23:30:15.795Z,99160.00
2023-01-28T23:32:49.660Z,99157.34
2023-01-28T23:35:19.297Z,99172.69
2023-01-28T23:37:47.953Z,99159.72
2023-01-28T23:40:19.030Z,99155.28
2023-01-28T23:42:50.126Z,99157.09
2023-01-28T23:45:19.061Z,99161.56
2023-01-28T23:47:47.929Z,99157.47
2023-01-28T23:50:17.798Z,99164.63
2023-01-28T23:52:46.618Z,99167.03
2023-01-28T23:55:16.162Z,99154.63
2023-01-28T23:57:46.251Z,99145.34
